sensor_id;sensor_type;location;lat;lon;timestamp;pressure;altitude;pressure_sealevel;temperature;humidity
72548;BME280;60570;50.848;6.776;2023-07-09T00:00:55;100667.13;;;27.33;45.54
72548;BME280;60570;50.848;6.776;2023-07-09T00:01:57;100658.97;;;27.31;45.43
72548;BME280;60570;50.848;6.776;2023-07-09T00:02:58;100676.88;;;27.32;45.48
72548;BME280;60570;50.848;6.776;2023-07-09T00:03:59;100674.03;;;27.32;45.44
72548;BME280;60570;50.848;6.776;2023-07-09T00:05:01;100670.84;;;27.30;45.58
72548;BME280;60570;50.848;6.776;2023-07-09T00:06:01;100667.19;;;27.29;45.24
72548;BME280;60570;50.848;6.776;2023-07-09T00:07:04;100667.19;;;27.29;45.01
72548;BME280;60570;50.848;6.776;2023-07-09T00:08:07;100667.63;;;27.28;45.18
72548;BME280;60570;50.848;6.776;2023-07-09T00:09:17;100669.69;;;27.27;45.54
72548;BME280;60570;50.848;6.776;2023-07-09T00:10:20;100665.56;;;27.28;45.41
72548;BME280;60570;50.848;6.776;2023-07-09T00:11:22;100670.91;;;27.26;45.21
72548;BME280;60570;50.848;6.776;2023-07-09T00:12:23;100668.06;;;27.26;45.12
72548;BME280;60570;50.848;6.776;2023-07-09T00:13:26;100655.88;;;27.26;45.38
72548;BME280;60570;50.848;6.776;2023-07-09T00:14:27;100663.63;;;27.25;45.36
72548;BME280;60570;50.848;6.776;2023-07-09T00:15:28;100663.63;;;27.25;45.54
72548;BME280;60570;50.848;6.776;2023-07-09T00:16:29;100667.69;;;27.24;45.29
72548;BME280;60570;50.848;6.776;2023-07-09T00:17:32;100666.94;;;27.24;45.51
72548;BME280;60570;50.848;6.776;2023-07-09T00:18:33;100666.13;;;27.23;45.43
72548;BME280;60570;50.848;6.776;2023-07-09T00:19:35;100669.41;;;27.22;45.12
72548;BME280;60570;50.848;6.776;2023-07-09T00:20:36;100671.81;;;27.23;45.26
72548;BME280;60570;50.848;6.776;2023-07-09T00:21:37;100668.97;;;27.23;45.14
72548;BME280;60570;50.848;6.776;2023-07-09T00:22:39;100664.50;;;27.22;45.70
72548;BME280;60570;50.848;6.776;2023-07-09T00:23:41;100659.25;;;27.21;45.73
72548;BME280;60570;50.848;6.776;2023-07-09T00:24:43;100664.13;;;27.20;45.75
72548;BME280;60570;50.848;6.776;2023-07-09T00:25:45;100664.59;;;27.19;45.45
72548;BME280;60570;50.848;6.776;2023-07-09T00:26:46;100666.97;;;27.20;45.61
72548;BME280;60570;50.848;6.776;2023-07-09T00:27:48;100670.28;;;27.19;45.61
72548;BME280;60570;50.848;6.776;2023-07-09T00:28:50;100663.78;;;27.18;45.71
72548;BME280;60570;50.848;6.776;2023-07-09T00:29:51;100669.47;;;27.18;45.77
72548;BME280;60570;50.848;6.776;2023-07-09T00:30:53;100665.84;;;27.18;45.65
72548;BME280;60570;50.848;6.776;2023-07-09T00:31:53;100664.22;;;27.17;45.71
72548;BME280;60570;50.848;6.776;2023-07-09T00:32:55;100669.94;;;27.17;45.77
72548;BME280;60570;50.848;6.776;2023-07-09T00:33:56;100659.78;;;27.16;45.65
72548;BME280;60570;50.848;6.776;2023-07-09T00:35:00;100665.50;;;27.16;45.22
72548;BME280;60570;50.848;6.776;2023-07-09T00:36:11;100663.09;;;27.14;45.31
72548;BME280;60570;50.848;6.776;2023-07-09T00:37:16;100661.00;;;27.15;45.33
72548;BME280;60570;50.848;6.776;2023-07-09T00:38:19;100663.09;;;27.14;45.64
72548;BME280;60570;50.848;6.776;2023-07-09T00:39:23;100661.47;;;27.13;45.82
72548;BME280;60570;50.848;6.776;2023-07-09T00:40:23;100654.94;;;27.13;45.28
72548;BME280;60570;50.848;6.776;2023-07-09T00:41:26;100652.56;;;27.11;45.53
72548;BME280;60570;50.848;6.776;2023-07-09T00:42:28;100661.09;;;27.11;45.81
72548;BME280;60570;50.848;6.776;2023-07-09T00:43:32;100654.59;;;27.11;45.62
72548;BME280;60570;50.848;6.776;2023-07-09T00:44:35;100648.88;;;27.11;45.38
72548;BME280;60570;50.848;6.776;2023-07-09T00:45:37;100646.47;;;27.09;45.78
72548;BME280;60570;50.848;6.776;2023-07-09T00:47:13;100659.50;;;27.10;45.70
72548;BME280;60570;50.848;6.776;2023-07-09T00:48:17;100649.34;;;27.09;45.74
72548;BME280;60570;50.848;6.776;2023-07-09T00:49:28;100649.78;;;27.08;45.86
72548;BME280;60570;50.848;6.776;2023-07-09T00:50:36;100651.38;;;27.09;45.45
72548;BME280;60570;50.848;6.776;2023-07-09T00:51:43;100655.94;;;27.06;45.93
72548;BME280;60570;50.848;6.776;2023-07-09T00:52:50;100647.38;;;27.06;45.49
72548;BME280;60570;50.848;6.776;2023-07-09T00:53:57;100653.88;;;27.07;45.33
72548;BME280;60570;50.848;6.776;2023-07-09T00:55:03;100652.72;;;27.04;45.99
72548;BME280;60570;50.848;6.776;2023-07-09T00:56:08;100645.75;;;27.05;45.97
72548;BME280;60570;50.848;6.776;2023-07-09T00:57:12;100657.19;;;27.05;45.74
72548;BME280;60570;50.848;6.776;2023-07-09T00:58:18;100657.63;;;27.04;45.82
72548;BME280;60570;50.848;6.776;2023-07-09T00:59:23;100653.97;;;27.03;45.88
72548;BME280;60570;50.848;6.776;2023-07-09T01:00:29;100649.53;;;27.02;45.34
72548;BME280;60570;50.848;6.776;2023-07-09T01:01:36;100655.22;;;27.02;45.56
72548;BME280;60570;50.848;6.776;2023-07-09T01:02:43;100655.69;;;27.01;45.50
72548;BME280;60570;50.848;6.776;2023-07-09T01:03:47;100661.38;;;27.01;45.50
72548;BME280;60570;50.848;6.776;2023-07-09T01:04:50;100665.47;;;27.00;45.97
72548;BME280;60570;50.848;6.776;2023-07-09T01:05:52;100662.63;;;27.00;45.42
72548;BME280;60570;50.848;6.776;2023-07-09T01:06:56;100658.16;;;26.99;45.37
72548;BME280;60570;50.848;6.776;2023-07-09T01:07:57;100661.81;;;26.99;45.90
72548;BME280;60570;50.848;6.776;2023-07-09T01:08:59;100667.97;;;26.98;45.56
72548;BME280;60570;50.848;6.776;2023-07-09T01:10:03;100663.50;;;26.97;46.08
72548;BME280;60570;50.848;6.776;2023-07-09T01:11:04;100676.97;;;26.96;45.60
72548;BME280;60570;50.848;6.776;2023-07-09T01:12:10;100666.38;;;26.97;45.70
72548;BME280;60570;50.848;6.776;2023-07-09T01:13:10;100676.16;;;26.96;45.48
72548;BME280;60570;50.848;6.776;2023-07-09T01:14:13;100671.72;;;26.95;45.63
72548;BME280;60570;50.848;6.776;2023-07-09T01:15:17;100677.41;;;26.95;45.49
72548;BME280;60570;50.848;6.776;2023-07-09T01:16:19;100668.50;;;26.93;45.98
72548;BME280;60570;50.848;6.776;2023-07-09T01:17:24;100679.09;;;26.92;45.58
72548;BME280;60570;50.848;6.776;2023-07-09T01:18:28;100669.72;;;26.92;46.04
72548;BME280;60570;50.848;6.776;2023-07-09T01:19:35;100671.75;;;26.91;45.58
72548;BME280;60570;50.848;6.776;2023-07-09T01:20:43;100669.38;;;26.90;46.11
72548;BME280;60570;50.848;6.776;2023-07-09T01:21:45;100677.09;;;26.89;46.08
72548;BME280;60570;50.848;6.776;2023-07-09T01:22:48;100677.09;;;26.89;46.16
72548;BME280;60570;50.848;6.776;2023-07-09T01:23:50;100675.53;;;26.88;46.22
72548;BME280;60570;50.848;6.776;2023-07-09T01:24:57;100669.44;;;26.86;46.18
72548;BME280;60570;50.848;6.776;2023-07-09T01:26:01;100675.16;;;26.86;45.78
72548;BME280;60570;50.848;6.776;2023-07-09T01:27:04;100668.66;;;26.86;45.72
72548;BME280;60570;50.848;6.776;2023-07-09T01:28:04;100673.56;;;26.85;45.64
72548;BME280;60570;50.848;6.776;2023-07-09T01:29:05;100680.50;;;26.84;46.16
72548;BME280;60570;50.848;6.776;2023-07-09T01:30:13;100681.31;;;26.85;45.70
72548;BME280;60570;50.848;6.776;2023-07-09T01:31:15;100684.63;;;26.83;46.19
72548;BME280;60570;50.848;6.776;2023-07-09T01:32:18;100678.09;;;26.83;45.73
72548;BME280;60570;50.848;6.776;2023-07-09T01:33:20;100686.66;;;26.83;45.88
72548;BME280;60570;50.848;6.776;2023-07-09T01:34:21;100687.88;;;26.82;45.73
72548;BME280;60570;50.848;6.776;2023-07-09T01:35:23;100680.13;;;26.82;45.76
72548;BME280;60570;50.848;6.776;2023-07-09T01:36:26;100676.13;;;26.80;45.74
72548;BME280;60570;50.848;6.776;2023-07-09T01:37:30;100678.97;;;26.80;45.83
72548;BME280;60570;50.848;6.776;2023-07-09T01:38:31;100681.03;;;26.79;45.82
72548;BME280;60570;50.848;6.776;2023-07-09T01:39:33;100675.75;;;26.78;46.31
72548;BME280;60570;50.848;6.776;2023-07-09T01:40:33;100676.56;;;26.78;45.94
72548;BME280;60570;50.848;6.776;2023-07-09T01:41:35;100686.38;;;26.77;45.93
72548;BME280;60570;50.848;6.776;2023-07-09T01:42:36;100673.34;;;26.76;45.83
72548;BME280;60570;50.848;6.776;2023-07-09T01:43:40;100675.38;;;26.76;46.29
72548;BME280;60570;50.848;6.776;2023-07-09T01:44:41;100675.38;;;26.76;45.99
72548;BME280;60570;50.848;6.776;2023-07-09T01:45:43;100676.66;;;26.75;45.92
72548;BME280;60570;50.848;6.776;2023-07-09T01:46:44;100680.75;;;26.74;46.35
72548;BME280;60570;50.848;6.776;2023-07-09T01:47:46;100678.69;;;26.74;46.46
72548;BME280;60570;50.848;6.776;2023-07-09T01:48:47;100675.84;;;26.74;46.32
72548;BME280;60570;50.848;6.776;2023-07-09T01:49:50;100674.69;;;26.72;46.32
72548;BME280;60570;50.848;6.776;2023-07-09T01:50:52;100686.09;;;26.72;46.17
72548;BME280;60570;50.848;6.776;2023-07-09T01:51:53;100680.41;;;26.72;45.86
72548;BME280;60570;50.848;6.776;2023-07-09T01:52:56;100678.78;;;26.71;46.43
72548;BME280;60570;50.848;6.776;2023-07-09T01:53:58;100675.91;;;26.71;45.99
72548;BME280;60570;50.848;6.776;2023-07-09T01:55:00;100680.00;;;26.70;46.40
72548;BME280;60570;50.848;6.776;2023-07-09T01:56:00;100675.53;;;26.69;46.40
72548;BME280;60570;50.848;6.776;2023-07-09T01:57:14;100679.63;;;26.68;46.10
72548;BME280;60570;50.848;6.776;2023-07-09T01:58:16;100678.81;;;26.67;46.57
72548;BME280;60570;50.848;6.776;2023-07-09T01:59:17;100677.22;;;26.66;46.13
72548;BME280;60570;50.848;6.776;2023-07-09T02:00:21;100671.50;;;26.66;46.44
72548;BME280;60570;50.848;6.776;2023-07-09T02:01:23;100676.41;;;26.66;45.98
72548;BME280;60570;50.848;6.776;2023-07-09T02:02:26;100678.47;;;26.65;46.00
72548;BME280;60570;50.848;6.776;2023-07-09T02:03:27;100674.81;;;26.64;46.54
72548;BME280;60570;50.848;6.776;2023-07-09T02:04:29;100683.34;;;26.64;46.62
72548;BME280;60570;50.848;6.776;2023-07-09T02:05:32;100680.13;;;26.62;46.63
72548;BME280;60570;50.848;6.776;2023-07-09T02:06:34;100683.81;;;26.63;46.28
72548;BME280;60570;50.848;6.776;2023-07-09T02:07:35;100678.53;;;26.61;46.48
72548;BME280;60570;50.848;6.776;2023-07-09T02:08:39;100678.53;;;26.61;46.15
72548;BME280;60570;50.848;6.776;2023-07-09T02:09:40;100675.69;;;26.61;46.02
72548;BME280;60570;50.848;6.776;2023-07-09T02:10:43;100676.94;;;26.60;46.57
72548;BME280;60570;50.848;6.776;2023-07-09T02:11:45;100680.22;;;26.59;46.60
72548;BME280;60570;50.848;6.776;2023-07-09T02:12:46;100683.88;;;26.59;46.15
72548;BME280;60570;50.848;6.776;2023-07-09T02:13:48;100683.06;;;26.59;46.76
72548;BME280;60570;50.848;6.776;2023-07-09T02:14:48;100686.38;;;26.57;46.72
72548;BME280;60570;50.848;6.776;2023-07-09T02:15:50;100682.72;;;26.57;46.46
72548;BME280;60570;50.848;6.776;2023-07-09T02:16:51;100684.75;;;26.56;46.53
72548;BME280;60570;50.848;6.776;2023-07-09T02:17:52;100681.91;;;26.56;46.20
72548;BME280;60570;50.848;6.776;2023-07-09T02:18:54;100688.84;;;26.55;46.15
72548;BME280;60570;50.848;6.776;2023-07-09T02:19:54;100687.22;;;26.54;46.16
72548;BME280;60570;50.848;6.776;2023-07-09T02:20:56;100684.38;;;26.54;46.40
72548;BME280;60570;50.848;6.776;2023-07-09T02:21:57;100673.44;;;26.53;46.77
72548;BME280;60570;50.848;6.776;2023-07-09T02:22:58;100684.84;;;26.53;46.72
72548;BME280;60570;50.848;6.776;2023-07-09T02:24:01;100676.28;;;26.53;46.88
72548;BME280;60570;50.848;6.776;2023-07-09T02:25:02;100680.38;;;26.52;46.65
72548;BME280;60570;50.848;6.776;2023-07-09T02:26:03;100681.63;;;26.51;46.26
72548;BME280;60570;50.848;6.776;2023-07-09T02:27:06;100682.06;;;26.49;46.47
72548;BME280;60570;50.848;6.776;2023-07-09T02:28:07;100682.06;;;26.49;46.75
72548;BME280;60570;50.848;6.776;2023-07-09T02:29:09;100679.66;;;26.48;46.25
72548;BME280;60570;50.848;6.776;2023-07-09T02:30:09;100680.88;;;26.47;46.64
72548;BME280;60570;50.848;6.776;2023-07-09T02:31:12;100669.50;;;26.47;46.59
72548;BME280;60570;50.848;6.776;2023-07-09T02:32:18;100679.28;;;26.46;46.87
72548;BME280;60570;50.848;6.776;2023-07-09T02:33:20;100676.44;;;26.46;46.46
72548;BME280;60570;50.848;6.776;2023-07-09T02:34:20;100677.66;;;26.45;46.76
72548;BME280;60570;50.848;6.776;2023-07-09T02:35:26;100680.53;;;26.45;46.51
72548;BME280;60570;50.848;6.776;2023-07-09T02:36:26;100685.44;;;26.44;46.47
72548;BME280;60570;50.848;6.776;2023-07-09T02:37:28;100678.94;;;26.44;46.36
72548;BME280;60570;50.848;6.776;2023-07-09T02:38:29;100692.38;;;26.43;46.50
72548;BME280;60570;50.848;6.776;2023-07-09T02:39:31;100684.63;;;26.44;46.76
72548;BME280;60570;50.848;6.776;2023-07-09T02:40:32;100693.19;;;26.44;46.61
72548;BME280;60570;50.848;6.776;2023-07-09T02:41:34;100675.72;;;26.42;46.30
72548;BME280;60570;50.848;6.776;2023-07-09T02:42:35;100679.38;;;26.42;46.37
72548;BME280;60570;50.848;6.776;2023-07-09T02:43:36;100683.44;;;26.41;46.44
72548;BME280;60570;50.848;6.776;2023-07-09T02:44:39;100682.63;;;26.41;47.03
72548;BME280;60570;50.848;6.776;2023-07-09T02:45:41;100683.09;;;26.39;46.66
72548;BME280;60570;50.848;6.776;2023-07-09T02:46:41;100681.88;;;26.40;46.75
72548;BME280;60570;50.848;6.776;2023-07-09T02:47:43;100690.81;;;26.39;46.82
72548;BME280;60570;50.848;6.776;2023-07-09T02:48:44;100692.44;;;26.40;46.94
72548;BME280;60570;50.848;6.776;2023-07-09T02:49:46;100685.13;;;26.39;46.34
72548;BME280;60570;50.848;6.776;2023-07-09T02:50:46;100692.09;;;26.38;46.48
72548;BME280;60570;50.848;6.776;2023-07-09T02:51:48;100694.13;;;26.37;46.72
72548;BME280;60570;50.848;6.776;2023-07-09T02:52:49;100683.97;;;26.36;46.50
72548;BME280;60570;50.848;6.776;2023-07-09T02:53:50;100688.88;;;26.36;46.40
72548;BME280;60570;50.848;6.776;2023-07-09T02:54:52;100692.53;;;26.36;46.82
72548;BME280;60570;50.848;6.776;2023-07-09T02:55:53;100690.47;;;26.37;46.58
72548;BME280;60570;50.848;6.776;2023-07-09T02:56:55;100685.22;;;26.35;46.95
72548;BME280;60570;50.848;6.776;2023-07-09T02:57:56;100695.78;;;26.35;46.40
72548;BME280;60570;50.848;6.776;2023-07-09T02:58:58;100687.25;;;26.35;46.88
72548;BME280;60570;50.848;6.776;2023-07-09T02:59:58;100693.38;;;26.33;46.85
72548;BME280;60570;50.848;6.776;2023-07-09T03:01:00;100689.72;;;26.33;46.45
72548;BME280;60570;50.848;6.776;2023-07-09T03:02:02;100690.53;;;26.33;46.96
72548;BME280;60570;50.848;6.776;2023-07-09T03:03:04;100695.44;;;26.33;46.75
72548;BME280;60570;50.848;6.776;2023-07-09T03:04:05;100690.16;;;26.31;46.92
72548;BME280;60570;50.848;6.776;2023-07-09T03:05:08;100692.56;;;26.33;46.98
72548;BME280;60570;50.848;6.776;2023-07-09T03:06:10;100690.16;;;26.31;46.85
72548;BME280;60570;50.848;6.776;2023-07-09T03:07:12;100688.56;;;26.30;46.94
72548;BME280;60570;50.848;6.776;2023-07-09T03:08:14;100692.66;;;26.29;46.73
72548;BME280;60570;50.848;6.776;2023-07-09T03:09:15;100692.66;;;26.29;46.52
72548;BME280;60570;50.848;6.776;2023-07-09T03:10:18;100694.72;;;26.29;46.84
72548;BME280;60570;50.848;6.776;2023-07-09T03:11:21;100689.44;;;26.27;46.38
72548;BME280;60570;50.848;6.776;2023-07-09T03:12:21;100691.50;;;26.27;46.41
72548;BME280;60570;50.848;6.776;2023-07-09T03:13:23;100693.53;;;26.26;46.62
72548;BME280;60570;50.848;6.776;2023-07-09T03:14:24;100695.59;;;26.26;47.02
72548;BME280;60570;50.848;6.776;2023-07-09T03:15:26;100698.44;;;26.26;46.62
72548;BME280;60570;50.848;6.776;2023-07-09T03:16:28;100696.03;;;26.24;46.75
72548;BME280;60570;50.848;6.776;2023-07-09T03:17:29;100696.03;;;26.24;46.88
72548;BME280;60570;50.848;6.776;2023-07-09T03:18:30;100698.06;;;26.24;46.60
72548;BME280;60570;50.848;6.776;2023-07-09T03:19:31;100694.41;;;26.23;46.52
72548;BME280;60570;50.848;6.776;2023-07-09T03:20:32;100695.66;;;26.22;46.38
72548;BME280;60570;50.848;6.776;2023-07-09T03:21:33;100702.94;;;26.23;46.65
72548;BME280;60570;50.848;6.776;2023-07-09T03:22:35;100698.94;;;26.21;46.31
72548;BME280;60570;50.848;6.776;2023-07-09T03:23:36;100695.28;;;26.20;46.72
72548;BME280;60570;50.848;6.776;2023-07-09T03:24:38;100703.03;;;26.20;46.88
72548;BME280;60570;50.848;6.776;2023-07-09T03:25:41;100697.34;;;26.20;46.42
72548;BME280;60570;50.848;6.776;2023-07-09T03:26:43;100704.28;;;26.19;46.41
72548;BME280;60570;50.848;6.776;2023-07-09T03:27:47;100706.31;;;26.18;46.92
72548;BME280;60570;50.848;6.776;2023-07-09T03:28:48;100697.78;;;26.18;46.32
72548;BME280;60570;50.848;6.776;2023-07-09T03:29:49;100701.88;;;26.17;46.42
72548;BME280;60570;50.848;6.776;2023-07-09T03:30:54;100708.34;;;26.18;46.93
72548;BME280;60570;50.848;6.776;2023-07-09T03:31:55;100710.84;;;26.16;46.41
72548;BME280;60570;50.848;6.776;2023-07-09T03:32:56;100705.13;;;26.16;46.66
72548;BME280;60570;50.848;6.776;2023-07-09T03:33:57;100708.00;;;26.16;46.52
72548;BME280;60570;50.848;6.776;2023-07-09T03:34:59;100706.41;;;26.15;46.40
72548;BME280;60570;50.848;6.776;2023-07-09T03:35:59;100710.06;;;26.15;46.88
72548;BME280;60570;50.848;6.776;2023-07-09T03:37:01;100709.25;;;26.15;46.62
72548;BME280;60570;50.848;6.776;2023-07-09T03:38:03;100716.16;;;26.14;46.85
72548;BME280;60570;50.848;6.776;2023-07-09T03:39:04;100712.53;;;26.13;46.48
72548;BME280;60570;50.848;6.776;2023-07-09T03:40:09;100710.09;;;26.12;46.54
72548;BME280;60570;50.848;6.776;2023-07-09T03:41:12;100712.53;;;26.13;46.63
72548;BME280;60570;50.848;6.776;2023-07-09T03:42:13;100710.09;;;26.12;46.93
72548;BME280;60570;50.848;6.776;2023-07-09T03:43:14;100715.00;;;26.11;47.01
72548;BME280;60570;50.848;6.776;2023-07-09T03:44:16;100717.88;;;26.11;46.35
72548;BME280;60570;50.848;6.776;2023-07-09T03:45:16;100718.28;;;26.10;46.35
72548;BME280;60570;50.848;6.776;2023-07-09T03:46:18;100720.34;;;26.09;46.83
72548;BME280;60570;50.848;6.776;2023-07-09T03:47:19;100714.66;;;26.09;46.47
72548;BME280;60570;50.848;6.776;2023-07-09T03:48:21;100713.03;;;26.08;46.38
72548;BME280;60570;50.848;6.776;2023-07-09T03:49:21;100717.50;;;26.09;46.58
72548;BME280;60570;50.848;6.776;2023-07-09T03:50:23;100715.06;;;26.08;46.65
72548;BME280;60570;50.848;6.776;2023-07-09T03:51:23;100725.66;;;26.07;46.99
72548;BME280;60570;50.848;6.776;2023-07-09T03:52:24;100722.00;;;26.07;46.46
72548;BME280;60570;50.848;6.776;2023-07-09T03:53:26;100724.03;;;26.06;46.49
72548;BME280;60570;50.848;6.776;2023-07-09T03:54:26;100725.28;;;26.05;46.45
72548;BME280;60570;50.848;6.776;2023-07-09T03:55:28;100722.41;;;26.05;46.46
72548;BME280;60570;50.848;6.776;2023-07-09T03:56:30;100728.13;;;26.05;46.88
72548;BME280;60570;50.848;6.776;2023-07-09T03:57:32;100724.47;;;26.05;46.89
72548;BME280;60570;50.848;6.776;2023-07-09T03:58:33;100720.78;;;26.04;46.64
72548;BME280;60570;50.848;6.776;2023-07-09T03:59:34;100723.28;;;26.02;46.75
72548;BME280;60570;50.848;6.776;2023-07-09T04:00:35;100721.25;;;26.03;47.03
72548;BME280;60570;50.848;6.776;2023-07-09T04:01:37;100726.94;;;26.03;47.00
72548;BME280;60570;50.848;6.776;2023-07-09T04:02:37;100724.09;;;26.03;46.77
72548;BME280;60570;50.848;6.776;2023-07-09T04:03:39;100736.72;;;26.02;46.84
72548;BME280;60570;50.848;6.776;2023-07-09T04:04:39;100725.75;;;26.00;46.96
72548;BME280;60570;50.848;6.776;2023-07-09T04:05:41;100722.91;;;26.00;46.86
72548;BME280;60570;50.848;6.776;2023-07-09T04:06:42;100735.56;;;25.99;46.47
72548;BME280;60570;50.848;6.776;2023-07-09T04:07:44;100738.41;;;25.99;47.06
72548;BME280;60570;50.848;6.776;2023-07-09T04:08:44;100721.75;;;25.98;46.44
72548;BME280;60570;50.848;6.776;2023-07-09T04:09:46;100723.78;;;25.97;46.92
72548;BME280;60570;50.848;6.776;2023-07-09T04:10:47;100730.31;;;25.98;46.71
72548;BME280;60570;50.848;6.776;2023-07-09T04:11:50;100735.19;;;25.97;46.88
72548;BME280;60570;50.848;6.776;2023-07-09T04:12:50;100728.69;;;25.97;46.52
72548;BME280;60570;50.848;6.776;2023-07-09T04:13:52;100729.94;;;25.96;46.88
72548;BME280;60570;50.848;6.776;2023-07-09T04:14:53;100729.13;;;25.95;46.98
72548;BME280;60570;50.848;6.776;2023-07-09T04:15:54;100734.81;;;25.95;46.40
72548;BME280;60570;50.848;6.776;2023-07-09T04:16:55;100727.50;;;25.94;46.56
72548;BME280;60570;50.848;6.776;2023-07-09T04:17:57;100738.88;;;25.94;46.94
72548;BME280;60570;50.848;6.776;2023-07-09T04:18:58;100725.91;;;25.93;46.59
72548;BME280;60570;50.848;6.776;2023-07-09T04:20:00;100724.28;;;25.92;46.78
72548;BME280;60570;50.848;6.776;2023-07-09T04:21:00;100729.97;;;25.92;46.56
72548;BME280;60570;50.848;6.776;2023-07-09T04:22:02;100730.78;;;25.93;46.50
72548;BME280;60570;50.848;6.776;2023-07-09T04:23:03;100727.13;;;25.92;47.11
72548;BME280;60570;50.848;6.776;2023-07-09T04:24:06;100725.53;;;25.91;46.80
72548;BME280;60570;50.848;6.776;2023-07-09T04:25:10;100727.56;;;25.91;47.04
72548;BME280;60570;50.848;6.776;2023-07-09T04:26:13;100724.72;;;25.91;47.11
72548;BME280;60570;50.848;6.776;2023-07-09T04:27:15;100729.59;;;25.90;46.67
72548;BME280;60570;50.848;6.776;2023-07-09T04:28:17;100733.69;;;25.89;46.65
72548;BME280;60570;50.848;6.776;2023-07-09T04:29:17;100728.81;;;25.90;46.59
72548;BME280;60570;50.848;6.776;2023-07-09T04:30:19;100728.81;;;25.90;46.73
72548;BME280;60570;50.848;6.776;2023-07-09T04:31:20;100725.16;;;25.89;47.18
72548;BME280;60570;50.848;6.776;2023-07-09T04:32:22;100725.97;;;25.90;46.98
72548;BME280;60570;50.848;6.776;2023-07-09T04:33:23;100732.09;;;25.88;47.01
72548;BME280;60570;50.848;6.776;2023-07-09T04:34:25;100727.63;;;25.87;46.51
72548;BME280;60570;50.848;6.776;2023-07-09T04:35:25;100723.56;;;25.88;46.43
72548;BME280;60570;50.848;6.776;2023-07-09T04:36:27;100731.28;;;25.88;46.60
72548;BME280;60570;50.848;6.776;2023-07-09T04:37:28;100734.13;;;25.88;46.84
72548;BME280;60570;50.848;6.776;2023-07-09T04:38:29;100727.63;;;25.87;46.48
72548;BME280;60570;50.848;6.776;2023-07-09T04:39:30;100733.31;;;25.87;46.84
72548;BME280;60570;50.848;6.776;2023-07-09T04:40:32;100730.91;;;25.86;47.01
72548;BME280;60570;50.848;6.776;2023-07-09T04:41:32;100733.78;;;25.86;47.01
72548;BME280;60570;50.848;6.776;2023-07-09T04:42:36;100729.28;;;25.85;46.81
72548;BME280;60570;50.848;6.776;2023-07-09T04:43:37;100732.97;;;25.85;47.02
72548;BME280;60570;50.848;6.776;2023-07-09T04:44:39;100727.25;;;25.85;46.63
72548;BME280;60570;50.848;6.776;2023-07-09T04:45:40;100719.16;;;25.84;46.49
72548;BME280;60570;50.848;6.776;2023-07-09T04:46:41;100724.84;;;25.84;47.05
72548;BME280;60570;50.848;6.776;2023-07-09T04:47:42;100722.00;;;25.84;46.78
72548;BME280;60570;50.848;6.776;2023-07-09T04:48:44;100728.94;;;25.83;46.73
72548;BME280;60570;50.848;6.776;2023-07-09T04:49:45;100721.19;;;25.83;46.56
72548;BME280;60570;50.848;6.776;2023-07-09T04:50:47;100726.88;;;25.83;46.50
72548;BME280;60570;50.848;6.776;2023-07-09T04:51:50;100723.22;;;25.83;47.10
72548;BME280;60570;50.848;6.776;2023-07-09T04:52:52;100723.22;;;25.83;47.12
72548;BME280;60570;50.848;6.776;2023-07-09T04:53:52;100719.59;;;25.82;47.14
72548;BME280;60570;50.848;6.776;2023-07-09T04:54:54;100725.28;;;25.82;46.59
72548;BME280;60570;50.848;6.776;2023-07-09T04:55:55;100723.66;;;25.81;46.68
72548;BME280;60570;50.848;6.776;2023-07-09T04:56:57;100724.94;;;25.80;46.87
72548;BME280;60570;50.848;6.776;2023-07-09T04:58:00;100726.53;;;25.81;46.86
72548;BME280;60570;50.848;6.776;2023-07-09T04:59:01;100722.09;;;25.80;46.48
72548;BME280;60570;50.848;6.776;2023-07-09T05:00:03;100726.97;;;25.80;47.16
72548;BME280;60570;50.848;6.776;2023-07-09T05:01:05;100724.13;;;25.80;46.88
72548;BME280;60570;50.848;6.776;2023-07-09T05:02:06;100728.19;;;25.78;47.15
72548;BME280;60570;50.848;6.776;2023-07-09T05:03:08;100721.72;;;25.78;46.69
72548;BME280;60570;50.848;6.776;2023-07-09T05:04:09;100732.28;;;25.77;46.98
72548;BME280;60570;50.848;6.776;2023-07-09T05:05:11;100726.16;;;25.79;46.74
72548;BME280;60570;50.848;6.776;2023-07-09T05:06:12;100725.78;;;25.77;47.10
72548;BME280;60570;50.848;6.776;2023-07-09T05:07:13;100723.75;;;25.77;46.66
72548;BME280;60570;50.848;6.776;2023-07-09T05:08:15;100724.19;;;25.76;46.77
72548;BME280;60570;50.848;6.776;2023-07-09T05:09:18;100728.63;;;25.77;46.64
72548;BME280;60570;50.848;6.776;2023-07-09T05:10:18;100720.97;;;25.74;46.58
72548;BME280;60570;50.848;6.776;2023-07-09T05:11:20;100724.19;;;25.76;46.51
72548;BME280;60570;50.848;6.776;2023-07-09T05:12:21;100726.22;;;25.75;46.66
72548;BME280;60570;50.848;6.776;2023-07-09T05:13:24;100721.78;;;25.74;46.73
72548;BME280;60570;50.848;6.776;2023-07-09T05:14:26;100719.72;;;25.75;46.80
72548;BME280;60570;50.848;6.776;2023-07-09T05:15:28;100712.44;;;25.74;46.50
72548;BME280;60570;50.848;6.776;2023-07-09T05:16:29;100717.31;;;25.73;46.57
72548;BME280;60570;50.848;6.776;2023-07-09T05:17:30;100718.94;;;25.74;46.88
72548;BME280;60570;50.848;6.776;2023-07-09T05:18:31;100713.66;;;25.73;46.71
72548;BME280;60570;50.848;6.776;2023-07-09T05:19:33;100723.00;;;25.73;46.56
72548;BME280;60570;50.848;6.776;2023-07-09T05:20:34;100718.13;;;25.74;46.61
72548;BME280;60570;50.848;6.776;2023-07-09T05:21:35;100712.88;;;25.72;47.24
72548;BME280;60570;50.848;6.776;2023-07-09T05:22:36;100715.72;;;25.72;46.66
72548;BME280;60570;50.848;6.776;2023-07-09T05:23:38;100719.78;;;25.71;46.64
72548;BME280;60570;50.848;6.776;2023-07-09T05:24:38;100705.53;;;25.71;46.63
72548;BME280;60570;50.848;6.776;2023-07-09T05:25:40;100710.44;;;25.71;46.82